KPZQ METAR Reports


Rogers City, Presque Isle County Airport, MI, United States (KPZQ) 45-24-25N 083-48-46W
Apr 25, 2018 - 08:15 AM EDT / 2018.04.25 1215 UTC
Wind: from the NW (320 degrees) at 8 MPH (7 KT):0
Visibility: 7 mile(s):0
Sky conditions: overcast
Weather: drizzle
Temperature: 37.4 F (3.0 C)
Dew Point: 35.8 F (2.1 C)
Relative Humidity: 93%
Pressure (altimeter): 30.04 in. Hg (1017 hPa)
ob: KPZQ 251215Z AUTO 32007KT 7SM DZ OVC005 03/02 A3004 RMK AO2 T00300021
cycle: 12

 

Rogers City METAR Meteogram

Nearby METAR Reports

KPZQ - Rogers City, Michigan, USA
Distance from station: SSW 1mi, 2km
Updated: Wed, 25-Apr-2018 8:15am EDT
Drizzle, Overcast
Drizzle, Overcast
 Wind from NW
Wind: NW 8 mph , 13 km/h
Temperature: 37°F , 3°C
Wind Chill: 31°F , -1°C
Dew Point: 36°F , 2°C
Humidity: 93%
Barometer: 30.04 inHg , 1017.3 hPa
Summary: Drizzle
Clouds: Overcast
Visibility: 7 miles , 11 km
Cloud details: Overcast 500 ft
2018/04/25 12:15 KPZQ 251215Z AUTO 32007KT 7SM DZ OVC005 03/02 A3004 RMK AO2 T00300021
KAPN - Alpena, Michigan, USA
Distance from station: SSE 27mi, 43km
Updated: Wed, 25-Apr-2018 7:54am EDT
NOT Current
Light rain, Overcast
Light rain, Overcast
 Wind from NNW
Wind: NNW 10 mph , 17 km/h
Temperature: 39°F , 4°C
Wind Chill: 32°F , 0°C
Dew Point: 37°F , 3°C
Humidity: 93%
Barometer: 30.01 inHg , 1016.3 hPa
Summary: Light rain
Clouds: Overcast
Visibility: 10 miles , 16 km
Cloud details: Mostly cloudy 600 ft
Overcast 3900 ft
2018/04/25 11:54 KAPN 251154Z AUTO 34009KT 10SM -RA BKN006 OVC039 04/03 A3001 RMK AO2 SLP167 P0001 60011 70020 T00390033 10039 20033 53005
 
KSLH - Cheboygan, Michigan, USA
Distance from station: WNW 38mi, 61km
Updated: Wed, 25-Apr-2018 8:15am EDT
Overcast
Overcast
 Wind from NNW
Wind: NNW 7 mph , 11 km/h
Temperature: 37°F , 3°C
Wind Chill: 32°F , 0°C
Dew Point: 34°F , 1°C
Humidity: 87%
Barometer: 30.05 inHg , 1017.6 hPa
Clouds: Overcast
Visibility: 10 miles , 16 km
Cloud details: Mostly cloudy 1500 ft
Overcast 5000 ft
2018/04/25 12:15 KSLH 251215Z AUTO 33006KT 10SM BKN015 OVC050 03/01 A3005 RMK AO2 T00320014
KDRM - Drummond Is, Michigan, USA
Distance from station: N 40mi, 65km
Updated: Wed, 25-Apr-2018 8:15am EDT
Overcast
Overcast
 Wind from N
Wind: N 5 mph , 7 km/h
Temperature: 36°F , 2°C
Wind Chill: 32°F , 0°C
Dew Point: 36°F , 2°C
Humidity: 100%
Barometer: 30.03 inHg , 1016.9 hPa
Clouds: Overcast
Visibility: 10 miles , 16 km
Cloud details: Mostly cloudy 1100 ft
Overcast 2000 ft
2018/04/25 12:15 KDRM 251215Z AUTO 35004KT 10SM BKN011 OVC020 02/02 A3003 RMK AO2 T00220017
 
KPLN - Pellston, Michigan, USA
Distance from station: WNW 49mi, 79km
Updated: Wed, 25-Apr-2018 7:54am EDT
NOT Current
Partly cloudy
Partly cloudy
 Wind from WNW
Wind: WNW 5 mph , 7 km/h
Temperature: 36°F , 2°C
Wind Chill: 32°F , 0°C
Dew Point: 34°F , 1°C
Humidity: 93%
Barometer: 30.06 inHg , 1017.9 hPa
Clouds: Partly cloudy
Visibility: 10 miles , 16 km
Cloud details: Few Clouds 3400 ft
Partly cloudy 4600 ft
2018/04/25 11:54 KPLN 251154Z AUTO 30004KT 10SM FEW034 SCT046 02/01 A3006 RMK AO2 SLP184 60003 70003 T00220006 10061 20017 53003
KMCD - Mackinac Island, Michigan, USA
Distance from station: NW 50mi, 80km
Updated: Wed, 25-Apr-2018 8:15am EDT
Partly cloudy
Partly cloudy
 Wind from NNW
Wind: NNW 7 mph , 11 km/h
Temperature: 37°F , 3°C
Wind Chill: 32°F , 0°C
Dew Point: 36°F , 2°C
Humidity: 93%
Barometer: 30.05 inHg , 1017.6 hPa
Clouds: Partly cloudy
Visibility: 10 miles , 16 km
Cloud details: Partly cloudy 2100 ft
Partly cloudy 3800 ft
2018/04/25 12:15 KMCD 251215Z AUTO 34006KT 10SM SCT021 SCT038 03/02 A3005 RMK AO2 T00320015